Time;durP1;ratioP1;P1;durP2;ratioP2;P2;SDS_P1;SDS_P2;PMS_P1;PMS_P2;Temp;Humidity;BMP_temperature;BMP_pressure;BME280_temperature;BME280_humidity;BME280_pressure;Samples;Min_cycle;Max_cycle;Signal;HPM_P1;HPM_P2
2022/08/20 00:15:34;;;;;;;;;2.00;2.00;;;;;;;;6032751;23;45709;-93
2022/08/20 00:18:11;;;;;;;;;4.00;4.00;;;;;;;;5998538;23;47236;-93
2022/08/20 00:20:57;;;;;;;;;2.00;2.00;;;;;;;;6008371;23;45413;-94
2022/08/20 00:26:55;;;;;;;;;3.67;3.00;;;;;;;;5970770;23;45438;-94
2022/08/20 00:29:40;;;;;;;;;3.00;1.67;;;;;;;;6007849;23;47608;-93
2022/08/20 00:32:33;;;;;;;;;3.33;3.00;;;;;;;;6008838;23;45419;-93
2022/08/20 00:35:30;;;;;;;;;4.00;2.33;;;;;;;;6008386;23;45382;-93
2022/08/20 00:38:15;;;;;;;;;4.33;2.33;;;;;;;;6004270;23;45621;-93
2022/08/20 00:40:53;;;;;;;;;;;;;;;;;;;;;
2022/08/20 00:43:36;;;;;;;;;3.00;3.00;;;;;;;;6031639;23;71342;-93
2022/08/20 00:46:10;;;;;;;;;4.33;2.00;;;;;;;;6008765;23;45471;-93
2022/08/20 00:48:50;;;;;;;;;1.67;1.67;;;;;;;;6094766;22;45451;-93
2022/08/20 00:51:42;;;;;;;;;2.67;1.33;;;;;;;;6246508;22;47042;-94
2022/08/20 00:54:15;;;;;;;;;3.00;1.33;;;;;;;;6247556;22;45562;-93
2022/08/20 00:56:54;;;;;;;;;2.67;2.67;;;;;;;;6253890;22;45520;-93
2022/08/20 00:59:29;;;;;;;;;5.00;2.00;;;;;;;;6256011;22;45315;-94
2022/08/20 01:02:02;;;;;;;;;2.67;2.00;;;;;;;;6255865;22;47846;-93
2022/08/20 01:04:53;;;;;;;;;3.67;2.00;;;;;;;;6255577;22;45699;-93
2022/08/20 01:11:05;;;;;;;;;1.00;1.00;;;;;;;;6041247;23;46403;-93
2022/08/20 01:17:16;;;;;;;;;2.67;2.00;;;;;;;;5965636;23;45340;-94
2022/08/20 01:19:43;;;;;;;;;2.00;2.00;;;;;;;;5891753;24;45422;-93
2022/08/20 01:25:09;;;;;;;;;1.33;1.33;;;;;;;;5891794;24;45362;-93
2022/08/20 01:27:50;;;;;;;;;;;;;;;;;;;;;
2022/08/20 01:30:21;;;;;;;;;3.00;1.00;;;;;;;;5891320;24;67717;-94
2022/08/20 01:33:04;;;;;;;;;3.00;2.00;;;;;;;;5869245;24;45527;-95
2022/08/20 01:36:11;;;;;;;;;;;;;;;;;;;;;
2022/08/20 01:38:37;;;;;;;;;4.33;1.33;;;;;;;;5890707;24;74625;-94
2022/08/20 01:41:18;;;;;;;;;2.00;2.00;;;;;;;;5869326;24;45711;-93
2022/08/20 01:44:00;;;;;;;;;3.00;1.33;;;;;;;;5892590;24;45275;-93
2022/08/20 01:46:32;;;;;;;;;1.33;1.00;;;;;;;;5972036;23;46817;-94
2022/08/20 01:48:58;;;;;;;;;2.00;2.00;;;;;;;;6119619;23;45497;-93
2022/08/20 01:51:26;;;;;;;;;4.67;2.00;;;;;;;;6094769;23;45501;-94
2022/08/20 01:54:12;;;;;;;;;2.00;2.00;;;;;;;;6095038;23;45326;-93
2022/08/20 01:56:58;;;;;;;;;1.67;1.33;;;;;;;;6205001;22;47217;-93
2022/08/20 01:59:36;;;;;;;;;4.67;3.00;;;;;;;;6246418;22;45302;-93
2022/08/20 02:05:49;;;;;;;;;;;;;;;;;;;;;
2022/08/20 02:08:24;;;;;;;;;2.00;2.00;;;;;;;;6270899;22;73883;-93
2022/08/20 02:11:20;;;;;;;;;;;;;;;;;;;;;
2022/08/20 02:13:52;;;;;;;;;6.00;3.00;;;;;;;;6272641;22;68462;-93
2022/08/20 02:16:19;;;;;;;;;3.00;1.00;;;;;;;;6245656;22;45401;-94
2022/08/20 02:18:56;;;;;;;;;4.33;2.33;;;;;;;;6246126;22;47199;-94
2022/08/20 02:21:22;;;;;;;;;4.33;1.67;;;;;;;;6246059;22;45295;-93
2022/08/20 02:24:08;;;;;;;;;2.00;2.00;;;;;;;;6246510;22;45320;-94
2022/08/20 02:26:36;;;;;;;;;3.33;1.00;;;;;;;;6245260;22;45342;-94
2022/08/20 02:29:32;;;;;;;;;2.00;1.00;;;;;;;;6245827;22;47122;-94
2022/08/20 02:35:17;;;;;;;;;;;;;;;;;;;;;
2022/08/20 02:38:06;;;;;;;;;4.00;2.00;;;;;;;;6281895;22;68958;-93
2022/08/20 02:44:29;;;;;;;;;1.00;1.00;;;;;;;;6039984;23;45409;-94
2022/08/20 02:50:32;;;;;;;;;3.00;2.00;;;;;;;;5980775;23;45484;-94
2022/08/20 02:52:59;;;;;;;;;2.00;2.00;;;;;;;;5982034;23;46041;-93
2022/08/20 02:56:02;;;;;;;;;3.33;3.33;;;;;;;;6036964;23;45330;-94
2022/08/20 02:58:30;;;;;;;;;4.00;1.33;;;;;;;;6034678;23;45454;-93
2022/08/20 03:00:58;;;;;;;;;1.67;1.00;;;;;;;;6037739;23;45508;-94
2022/08/20 03:06:31;;;;;;;;;;;;;;;;;;;;;
2022/08/20 03:09:22;;;;;;;;;;;;;;;;;;;;;
2022/08/20 03:18:27;;;;;;;;;;;;;;;;;;;;;
2022/08/20 03:21:05;;;;;;;;;3.00;1.00;;;;;;;;5864257;24;68798;-93
2022/08/20 03:23:49;;;;;;;;;;;;;;;;;;;;;
2022/08/20 03:26:59;;;;;;;;;3.00;2.00;;;;;;;;5906527;23;74505;-94
2022/08/20 03:32:33;;;;;;;;;2.00;1.00;;;;;;;;5896032;24;45486;-93
2022/08/20 03:41:27;;;;;;;;;2.00;2.00;;;;;;;;5865188;24;45518;-95
2022/08/20 03:44:02;;;;;;;;;1.00;1.00;;;;;;;;5865132;24;45447;-93
2022/08/20 03:46:27;;;;;;;;;2.00;1.00;;;;;;;;5863862;24;45404;-94
2022/08/20 03:48:53;;;;;;;;;0.00;0.00;;;;;;;;5864578;24;47224;-92
2022/08/20 03:51:23;;;;;;;;;1.00;1.00;;;;;;;;5864276;24;45744;-94
2022/08/20 03:53:49;;;;;;;;;1.67;0.33;;;;;;;;5855509;23;45312;-94
2022/08/20 03:56:16;;;;;;;;;1.00;1.00;;;;;;;;5952062;23;45381;-94
2022/08/20 03:58:41;;;;;;;;;1.00;1.00;;;;;;;;5951271;23;47550;-93
2022/08/20 04:01:06;;;;;;;;;2.00;2.00;;;;;;;;5951666;23;45540;-93
2022/08/20 04:03:31;;;;;;;;;2.00;2.00;;;;;;;;5952602;23;45493;-93
2022/08/20 04:05:57;;;;;;;;;2.00;1.00;;;;;;;;5970620;23;45323;-93
2022/08/20 04:08:26;;;;;;;;;1.67;1.33;;;;;;;;6005211;23;46879;-93
2022/08/20 04:10:52;;;;;;;;;2.00;2.00;;;;;;;;6019336;23;45752;-93
2022/08/20 04:13:29;;;;;;;;;2.00;0.67;;;;;;;;6032974;23;45346;-94
2022/08/20 04:16:07;;;;;;;;;3.00;2.00;;;;;;;;6115585;23;45432;-94
2022/08/20 04:18:35;;;;;;;;;2.00;2.00;;;;;;;;6231018;22;47520;-94
2022/08/20 04:21:06;;;;;;;;;2.00;2.00;;;;;;;;6254965;22;45766;-93
2022/08/20 04:23:32;;;;;;;;;3.00;1.00;;;;;;;;6255060;22;45583;-93
2022/08/20 04:29:11;;;;;;;;;2.00;2.00;;;;;;;;6261499;22;46019;-94
2022/08/20 04:31:49;;;;;;;;;;;;;;;;;;;;;
2022/08/20 04:34:22;;;;;;;;;2.00;2.00;;;;;;;;6273040;22;67908;-93
2022/08/20 04:36:58;;;;;;;;;2.00;1.00;;;;;;;;6246587;22;45436;-94
2022/08/20 04:39:26;;;;;;;;;1.00;1.00;;;;;;;;6246671;22;47802;-94
2022/08/20 04:42:20;;;;;;;;;2.00;2.00;;;;;;;;6247289;22;45261;-94
2022/08/20 04:44:55;;;;;;;;;3.00;2.00;;;;;;;;6246403;22;45299;-94
2022/08/20 04:47:28;;;;;;;;;1.00;1.00;;;;;;;;6246786;22;45284;-93
2022/08/20 04:50:01;;;;;;;;;1.00;1.00;;;;;;;;6246545;22;47282;-94
2022/08/20 04:56:15;;;;;;;;;;;;;;;;;;;;;
2022/08/20 05:05:35;;;;;;;;;;;;;;;;;;;;;
2022/08/20 05:11:44;;;;;;;;;;;;;;;;;;;;;
2022/08/20 05:14:09;;;;;;;;;1.67;1.67;;;;;;;;5836720;24;75088;-93
2022/08/20 05:16:39;;;;;;;;;1.00;1.00;;;;;;;;5814808;24;45675;-94
2022/08/20 05:19:07;;;;;;;;;2.33;1.33;;;;;;;;5815508;24;45307;-94
2022/08/20 05:21:33;;;;;;;;;3.00;2.00;;;;;;;;5814905;24;45397;-93
2022/08/20 05:23:58;;;;;;;;;3.33;2.00;;;;;;;;5815136;24;47258;-94
2022/08/20 05:26:26;;;;;;;;;2.33;2.33;;;;;;;;5814817;24;45570;-93
2022/08/20 05:28:53;;;;;;;;;2.00;2.00;;;;;;;;5814918;24;45691;-93
2022/08/20 05:31:19;;;;;;;;;2.00;2.00;;;;;;;;5814984;24;45743;-93
2022/08/20 05:33:44;;;;;;;;;1.67;1.00;;;;;;;;5837644;24;48382;-93
2022/08/20 05:36:17;;;;;;;;;2.00;2.00;;;;;;;;5881021;24;45509;-93
2022/08/20 05:45:20;;;;;;;;;2.00;1.67;;;;;;;;5923323;24;46406;-94
2022/08/20 05:47:47;;;;;;;;;2.33;2.33;;;;;;;;5950885;23;46054;-93
2022/08/20 05:50:13;;;;;;;;;2.00;2.00;;;;;;;;5980008;23;45677;-93
2022/08/20 05:52:39;;;;;;;;;3.67;3.67;;;;;;;;5983525;23;45439;-92
2022/08/20 05:55:08;;;;;;;;;2.00;2.00;;;;;;;;5983053;23;47261;-93
2022/08/20 05:57:38;;;;;;;;;2.00;2.00;;;;;;;;5983326;23;45272;-93
2022/08/20 06:00:08;;;;;;;;;2.00;2.00;;;;;;;;5979583;23;45443;-93
2022/08/20 06:05:18;;;;;;;;;3.00;3.00;;;;;;;;5975624;23;45669;-93
2022/08/20 06:07:44;;;;;;;;;2.67;2.67;;;;;;;;5974922;23;45286;-93
2022/08/20 06:10:57;;;;;;;;;;;;;;;;;;;;;
2022/08/20 06:22:08;;;;;;;;;2.33;2.33;;;;;;;;6210685;22;45439;-93
2022/08/20 06:27:44;;;;;;;;;1.67;1.00;;;;;;;;6209729;22;46701;-94
2022/08/20 06:30:11;;;;;;;;;1.00;1.00;;;;;;;;6186071;22;45243;-92
2022/08/20 06:33:13;;;;;;;;;5.00;3.00;;;;;;;;6186176;22;45283;-94
2022/08/20 06:35:42;;;;;;;;;4.00;4.00;;;;;;;;6205743;22;45363;-94
2022/08/20 06:38:13;;;;;;;;;4.33;3.00;;;;;;;;6184762;22;47311;-94
2022/08/20 06:41:07;;;;;;;;;3.00;3.00;;;;;;;;6184458;22;45219;-94
2022/08/20 06:43:35;;;;;;;;;2.00;1.67;;;;;;;;6184712;22;45401;-94
2022/08/20 06:46:01;;;;;;;;;3.00;3.00;;;;;;;;6183990;22;45576;-85
2022/08/20 06:48:26;;;;;;;;;1.00;1.00;;;;;;;;6207287;22;45401;-84
2022/08/20 06:50:52;;;;;;;;;2.00;1.00;;;;;;;;6207830;22;45251;-85
2022/08/20 06:53:19;;;;;;;;;2.00;2.00;;;;;;;;6208228;22;45423;-85
2022/08/20 06:55:45;;;;;;;;;1.67;1.67;;;;;;;;6207787;22;45429;-86
2022/08/20 06:58:11;;;;;;;;;3.67;2.33;;;;;;;;6216775;22;46386;-88
2022/08/20 07:00:39;;;;;;;;;1.33;1.33;;;;;;;;6275590;22;45940;-85
2022/08/20 07:03:04;;;;;;;;;5.00;2.00;;;;;;;;6303416;22;45343;-85
2022/08/20 07:05:31;;;;;;;;;3.33;2.00;;;;;;;;6274670;22;45401;-85
2022/08/20 07:07:56;;;;;;;;;3.00;2.00;;;;;;;;6303025;22;46158;-86
2022/08/20 07:10:23;;;;;;;;;1.00;1.00;;;;;;;;6302741;22;45596;-86
2022/08/20 07:12:49;;;;;;;;;3.33;2.33;;;;;;;;6276396;22;45377;-87
2022/08/20 07:15:15;;;;;;;;;1.00;1.00;;;;;;;;6275625;22;45637;-89
2022/08/20 07:17:41;;;;;;;;;2.00;2.00;;;;;;;;6275145;22;47193;-86
2022/08/20 07:20:07;;;;;;;;;2.33;2.00;;;;;;;;6302694;22;45541;-88
2022/08/20 07:22:36;;;;;;;;;2.00;2.00;;;;;;;;6304102;22;45261;-87
2022/08/20 07:25:03;;;;;;;;;2.33;1.33;;;;;;;;6274575;22;45431;-87
2022/08/20 07:27:28;;;;;;;;;1.67;0.67;;;;;;;;6278619;22;46993;-89
2022/08/20 07:32:37;;;;;;;;;3.33;3.00;;;;;;;;6304494;22;45355;-93
2022/08/20 07:35:04;;;;;;;;;1.00;1.00;;;;;;;;6305955;22;45421;-93
2022/08/20 07:37:30;;;;;;;;;2.00;2.00;;;;;;;;6276316;22;47028;-91
2022/08/20 07:39:55;;;;;;;;;2.00;1.00;;;;;;;;6274338;22;45529;-87
2022/08/20 07:42:20;;;;;;;;;1.33;1.33;;;;;;;;6304602;22;45337;-89
2022/08/20 07:44:45;;;;;;;;;2.00;1.00;;;;;;;;6276319;22;45220;-92
2022/08/20 07:47:11;;;;;;;;;3.00;2.00;;;;;;;;6276127;22;48068;-90
2022/08/20 07:49:37;;;;;;;;;1.00;1.00;;;;;;;;6275584;22;45352;-91
2022/08/20 07:52:03;;;;;;;;;3.00;2.00;;;;;;;;6277034;22;45359;-94
2022/08/20 07:54:28;;;;;;;;;1.67;1.00;;;;;;;;6270447;22;45785;-89
2022/08/20 07:56:54;;;;;;;;;4.00;2.00;;;;;;;;6303090;22;46657;-87
2022/08/20 07:59:20;;;;;;;;;2.33;2.00;;;;;;;;6274452;22;45560;-89
2022/08/20 08:01:45;;;;;;;;;3.00;3.00;;;;;;;;6275062;22;45306;-88
2022/08/20 08:04:10;;;;;;;;;4.33;2.00;;;;;;;;6303376;22;45650;-87
2022/08/20 08:06:35;;;;;;;;;3.33;1.67;;;;;;;;6302332;22;45466;-89
2022/08/20 08:09:03;;;;;;;;;4.00;2.00;;;;;;;;6274082;22;45821;-91
2022/08/20 08:11:29;;;;;;;;;3.00;2.00;;;;;;;;6303653;22;45399;-91
2022/08/20 08:13:55;;;;;;;;;3.67;3.67;;;;;;;;6302511;22;45311;-89
2022/08/20 08:16:20;;;;;;;;;2.33;1.00;;;;;;;;6274173;22;48018;-90
2022/08/20 08:18:49;;;;;;;;;1.67;1.67;;;;;;;;6275141;22;45647;-91
2022/08/20 08:21:15;;;;;;;;;3.33;2.00;;;;;;;;6274591;22;45427;-94
2022/08/20 08:23:43;;;;;;;;;1.67;1.67;;;;;;;;6275556;22;45268;-91
2022/08/20 08:26:10;;;;;;;;;4.00;2.00;;;;;;;;6302084;22;45395;-91
2022/08/20 08:28:35;;;;;;;;;1.00;1.00;;;;;;;;6275319;22;45744;-91
2022/08/20 08:31:01;;;;;;;;;4.00;1.67;;;;;;;;6275309;22;45356;-89
2022/08/20 08:33:29;;;;;;;;;2.67;2.67;;;;;;;;6275759;22;45596;-90
2022/08/20 08:35:55;;;;;;;;;3.67;2.00;;;;;;;;6273746;22;48251;-90
2022/08/20 08:38:22;;;;;;;;;2.00;2.00;;;;;;;;6274709;22;45314;-91
2022/08/20 08:40:48;;;;;;;;;1.33;1.00;;;;;;;;6271207;22;45365;-90
2022/08/20 08:43:13;;;;;;;;;5.00;2.00;;;;;;;;6275358;22;45528;-89
2022/08/20 08:45:44;;;;;;;;;2.00;2.00;;;;;;;;6302719;22;45323;-90
2022/08/20 08:48:14;;;;;;;;;1.00;1.00;;;;;;;;6274661;22;45660;-90
2022/08/20 08:50:41;;;;;;;;;2.00;0.67;;;;;;;;6274070;22;45436;-91
2022/08/20 08:53:09;;;;;;;;;3.67;1.67;;;;;;;;6275428;22;45431;-89
2022/08/20 08:55:35;;;;;;;;;2.00;2.00;;;;;;;;6274342;22;46928;-90
2022/08/20 08:58:01;;;;;;;;;2.33;2.00;;;;;;;;6274904;22;45268;-90
2022/08/20 09:00:29;;;;;;;;;1.00;1.00;;;;;;;;6303056;22;45715;-90
2022/08/20 09:02:58;;;;;;;;;3.00;2.00;;;;;;;;6274762;22;45584;-91
2022/08/20 09:05:26;;;;;;;;;0.67;0.67;;;;;;;;6300846;22;45288;-91
2022/08/20 09:07:52;;;;;;;;;2.67;1.67;;;;;;;;6275187;22;45259;-91
2022/08/20 09:10:18;;;;;;;;;1.67;0.67;;;;;;;;6274895;22;45306;-91
2022/08/20 09:12:43;;;;;;;;;1.67;1.33;;;;;;;;6303359;22;45477;-92
2022/08/20 09:15:09;;;;;;;;;4.00;0.67;;;;;;;;6274854;22;47078;-92
2022/08/20 09:17:34;;;;;;;;;1.67;1.33;;;;;;;;6302608;22;45355;-91
2022/08/20 09:19:59;;;;;;;;;2.00;1.33;;;;;;;;6301769;22;45494;-91
2022/08/20 09:22:24;;;;;;;;;0.33;0.33;;;;;;;;6283950;22;45389;-95
2022/08/20 09:24:50;;;;;;;;;1.00;0.00;;;;;;;;6275794;22;47842;-89
2022/08/20 09:27:16;;;;;;;;;2.00;1.00;;;;;;;;6310721;22;45376;-92
2022/08/20 09:29:41;;;;;;;;;1.33;0.33;;;;;;;;6304117;22;45384;-92
2022/08/20 09:32:08;;;;;;;;;2.33;1.33;;;;;;;;6302096;22;45401;-90
2022/08/20 09:34:35;;;;;;;;;1.33;1.33;;;;;;;;6273165;22;47024;-89
2022/08/20 09:37:00;;;;;;;;;1.67;1.67;;;;;;;;6303449;22;45288;-90
2022/08/20 09:39:25;;;;;;;;;0.33;0.33;;;;;;;;6274350;22;45412;-89
2022/08/20 09:41:50;;;;;;;;;3.00;1.00;;;;;;;;6303388;22;45592;-89
2022/08/20 09:44:15;;;;;;;;;1.00;1.00;;;;;;;;6302838;22;45384;-90
2022/08/20 09:46:40;;;;;;;;;1.33;1.33;;;;;;;;6274375;22;45626;-90
2022/08/20 09:49:05;;;;;;;;;1.00;1.00;;;;;;;;6302282;22;45253;-91
2022/08/20 09:51:31;;;;;;;;;1.33;0.00;;;;;;;;6302020;22;45629;-90
2022/08/20 09:53:56;;;;;;;;;0.00;0.00;;;;;;;;6302130;22;46373;-90
2022/08/20 09:56:21;;;;;;;;;1.00;0.00;;;;;;;;6302648;22;45406;-90
2022/08/20 09:58:49;;;;;;;;;1.00;1.00;;;;;;;;6274598;22;45293;-89
2022/08/20 10:01:15;;;;;;;;;1.33;0.00;;;;;;;;6273865;22;45357;-90
2022/08/20 10:03:41;;;;;;;;;0.00;0.00;;;;;;;;6274553;22;48016;-89
2022/08/20 10:06:06;;;;;;;;;1.00;1.00;;;;;;;;6301132;22;45541;-90
2022/08/20 10:08:32;;;;;;;;;2.00;1.00;;;;;;;;6274472;22;45387;-87
2022/08/20 10:10:57;;;;;;;;;3.67;2.00;;;;;;;;6273883;22;45493;-89
2022/08/20 10:13:22;;;;;;;;;3.00;3.00;;;;;;;;6274456;22;47118;-91
2022/08/20 10:15:47;;;;;;;;;1.67;1.67;;;;;;;;6302261;22;45738;-90
2022/08/20 10:18:12;;;;;;;;;0.67;0.00;;;;;;;;6273414;22;45333;-90
2022/08/20 10:20:38;;;;;;;;;1.67;1.67;;;;;;;;6272778;22;45396;-89
2022/08/20 10:23:03;;;;;;;;;1.33;1.00;;;;;;;;6302368;22;45877;-89
2022/08/20 10:25:29;;;;;;;;;0.67;0.67;;;;;;;;6300935;22;45319;-88
2022/08/20 10:27:54;;;;;;;;;1.00;1.00;;;;;;;;6302220;22;45277;-89
2022/08/20 10:30:19;;;;;;;;;2.67;1.33;;;;;;;;6273851;22;45377;-88
2022/08/20 10:32:45;;;;;;;;;1.67;1.67;;;;;;;;6273363;22;46904;-88
2022/08/20 10:35:10;;;;;;;;;3.00;0.33;;;;;;;;6273009;22;45507;-89
2022/08/20 10:37:35;;;;;;;;;3.00;2.00;;;;;;;;6273829;22;45551;-89
2022/08/20 10:40:01;;;;;;;;;2.33;2.00;;;;;;;;6273513;22;45267;-89
2022/08/20 10:42:26;;;;;;;;;1.00;1.00;;;;;;;;6274004;22;47770;-88
2022/08/20 10:44:51;;;;;;;;;5.67;4.00;;;;;;;;6301899;22;45260;-87
2022/08/20 10:47:27;;;;;;;;;4.00;4.00;;;;;;;;6301370;22;45641;-87
2022/08/20 10:49:53;;;;;;;;;2.00;1.00;;;;;;;;6273164;22;45623;-89
2022/08/20 10:52:19;;;;;;;;;1.33;1.00;;;;;;;;6301766;22;46365;-89
2022/08/20 10:54:45;;;;;;;;;1.00;1.00;;;;;;;;6300973;22;45384;-91
2022/08/20 10:57:18;;;;;;;;;5.00;3.33;;;;;;;;6304355;22;45404;-87
2022/08/20 10:59:45;;;;;;;;;1.00;1.00;;;;;;;;6282014;22;45552;-91
2022/08/20 11:02:10;;;;;;;;;0.00;0.00;;;;;;;;6277572;22;47266;-92
2022/08/20 11:04:36;;;;;;;;;1.00;1.00;;;;;;;;6306993;22;45321;-88
2022/08/20 11:07:12;;;;;;;;;1.00;1.00;;;;;;;;6276090;22;45469;-86
2022/08/20 11:09:37;;;;;;;;;0.67;0.00;;;;;;;;6274610;22;45763;-87
2022/08/20 11:12:02;;;;;;;;;1.00;1.00;;;;;;;;6309399;22;46231;-87
2022/08/20 11:14:28;;;;;;;;;0.67;0.67;;;;;;;;6304065;22;45301;-87
2022/08/20 11:16:53;;;;;;;;;1.67;1.00;;;;;;;;6275079;22;45887;-88
2022/08/20 11:19:18;;;;;;;;;3.00;3.00;;;;;;;;6275394;22;45274;-88
2022/08/20 11:21:43;;;;;;;;;3.33;1.00;;;;;;;;6273382;22;46357;-88
2022/08/20 11:24:08;;;;;;;;;0.67;0.67;;;;;;;;6302519;22;45235;-88
2022/08/20 11:26:33;;;;;;;;;0.00;0.00;;;;;;;;6302992;22;45219;-89
2022/08/20 11:28:59;;;;;;;;;1.00;1.00;;;;;;;;6303254;22;45574;-89
2022/08/20 11:31:24;;;;;;;;;0.00;0.00;;;;;;;;6302411;22;46569;-90
2022/08/20 11:33:49;;;;;;;;;0.00;0.00;;;;;;;;6275849;22;45408;-91
2022/08/20 11:36:14;;;;;;;;;1.67;1.00;;;;;;;;6276741;22;45490;-92
2022/08/20 11:38:39;;;;;;;;;1.00;1.00;;;;;;;;6275872;22;45306;-91
2022/08/20 11:41:04;;;;;;;;;1.00;1.00;;;;;;;;6274535;22;47195;-92
2022/08/20 11:43:30;;;;;;;;;1.67;1.67;;;;;;;;6303827;22;45389;-91
2022/08/20 11:45:55;;;;;;;;;1.00;1.00;;;;;;;;6302570;22;45203;-91
2022/08/20 11:48:20;;;;;;;;;1.00;1.00;;;;;;;;6275046;22;45381;-91
2022/08/20 11:50:46;;;;;;;;;1.00;1.00;;;;;;;;6274415;22;47111;-90
2022/08/20 11:53:12;;;;;;;;;2.00;2.00;;;;;;;;6303234;22;45398;-91
2022/08/20 11:55:37;;;;;;;;;0.00;0.00;;;;;;;;6302869;22;45382;-90
2022/08/20 11:58:02;;;;;;;;;2.00;1.00;;;;;;;;6275264;22;45245;-89
2022/08/20 12:00:28;;;;;;;;;1.00;0.00;;;;;;;;6275828;22;46956;-93
2022/08/20 12:02:54;;;;;;;;;2.00;1.00;;;;;;;;6303623;22;45409;-89
2022/08/20 12:05:19;;;;;;;;;2.00;2.00;;;;;;;;6302104;22;45375;-91
2022/08/20 12:07:44;;;;;;;;;2.33;1.33;;;;;;;;6303392;22;45768;-88
2022/08/20 12:10:10;;;;;;;;;1.33;1.33;;;;;;;;6273879;22;47279;-88
2022/08/20 12:12:37;;;;;;;;;1.67;1.67;;;;;;;;6274766;22;45363;-87
2022/08/20 12:15:03;;;;;;;;;0.33;0.00;;;;;;;;6274752;22;45333;-89
2022/08/20 12:17:29;;;;;;;;;1.00;1.00;;;;;;;;6274002;22;45263;-89
2022/08/20 12:19:55;;;;;;;;;1.00;1.00;;;;;;;;6273402;22;47008;-89
2022/08/20 12:22:21;;;;;;;;;1.67;1.67;;;;;;;;6302766;22;45328;-89
2022/08/20 12:24:46;;;;;;;;;2.33;2.00;;;;;;;;6274308;22;45320;-90
2022/08/20 12:27:14;;;;;;;;;1.00;1.00;;;;;;;;6303574;22;45296;-89
2022/08/20 12:29:39;;;;;;;;;2.00;2.00;;;;;;;;6302216;22;45416;-89
2022/08/20 12:32:06;;;;;;;;;4.00;1.00;;;;;;;;6302241;22;45506;-89
2022/08/20 12:34:36;;;;;;;;;1.00;1.00;;;;;;;;6302307;22;45403;-90
2022/08/20 12:37:03;;;;;;;;;1.00;1.00;;;;;;;;6274958;22;45274;-89
2022/08/20 12:39:30;;;;;;;;;2.00;2.00;;;;;;;;6301828;22;46163;-88
2022/08/20 12:41:55;;;;;;;;;2.00;2.00;;;;;;;;6275066;22;45327;-88
2022/08/20 12:44:21;;;;;;;;;1.33;1.00;;;;;;;;6302711;22;45469;-88
2022/08/20 12:46:46;;;;;;;;;3.00;1.33;;;;;;;;6274690;22;45555;-88
2022/08/20 12:49:11;;;;;;;;;1.00;1.00;;;;;;;;6274213;22;47140;-88
2022/08/20 12:51:36;;;;;;;;;1.00;1.00;;;;;;;;6301676;22;45451;-88
2022/08/20 12:54:01;;;;;;;;;1.00;1.00;;;;;;;;6301855;22;45362;-88
2022/08/20 12:56:26;;;;;;;;;2.67;1.00;;;;;;;;6274972;22;45683;-88
2022/08/20 12:58:52;;;;;;;;;1.00;1.00;;;;;;;;6274297;22;46978;-89
2022/08/20 13:01:17;;;;;;;;;1.67;1.00;;;;;;;;6301668;22;45508;-89
2022/08/20 13:03:42;;;;;;;;;0.33;0.33;;;;;;;;6275061;22;45373;-91
2022/08/20 13:06:07;;;;;;;;;1.00;1.00;;;;;;;;6271514;22;45376;-88
2022/08/20 13:08:32;;;;;;;;;1.00;1.00;;;;;;;;6302952;22;46349;-88
2022/08/20 13:10:57;;;;;;;;;1.67;1.00;;;;;;;;6272825;22;45302;-88
2022/08/20 13:13:23;;;;;;;;;1.00;1.00;;;;;;;;6274249;22;45448;-87
2022/08/20 13:15:49;;;;;;;;;1.00;1.00;;;;;;;;6274515;22;45369;-88
2022/08/20 13:18:14;;;;;;;;;1.00;1.00;;;;;;;;6273670;22;48035;-88
2022/08/20 13:20:39;;;;;;;;;2.00;1.00;;;;;;;;6301302;22;45160;-88
2022/08/20 13:23:05;;;;;;;;;1.33;1.33;;;;;;;;6275153;22;45609;-88
2022/08/20 13:25:30;;;;;;;;;3.00;2.00;;;;;;;;6274097;22;45517;-87
2022/08/20 13:27:57;;;;;;;;;2.00;2.00;;;;;;;;6274193;22;47949;-88
2022/08/20 13:30:22;;;;;;;;;1.67;1.67;;;;;;;;6274688;22;45917;-87
2022/08/20 13:32:48;;;;;;;;;3.33;1.67;;;;;;;;6274090;22;45341;-88
2022/08/20 13:35:13;;;;;;;;;0.67;0.67;;;;;;;;6274055;22;45289;-88
2022/08/20 13:37:39;;;;;;;;;2.00;2.00;;;;;;;;6274385;22;47088;-88
2022/08/20 13:40:05;;;;;;;;;1.00;1.00;;;;;;;;6273962;22;45396;-87
2022/08/20 13:42:30;;;;;;;;;3.00;3.00;;;;;;;;6274042;22;45843;-88
2022/08/20 13:44:56;;;;;;;;;2.33;2.33;;;;;;;;6302457;22;45317;-88
2022/08/20 13:47:29;;;;;;;;;1.33;1.33;;;;;;;;6301806;22;45330;-88
2022/08/20 13:50:03;;;;;;;;;2.00;1.00;;;;;;;;6301741;22;45881;-87
2022/08/20 13:52:29;;;;;;;;;2.00;1.00;;;;;;;;6302370;22;45740;-87
2022/08/20 13:54:54;;;;;;;;;1.00;1.00;;;;;;;;6301281;22;45360;-87
2022/08/20 13:57:20;;;;;;;;;2.00;1.00;;;;;;;;6302490;22;45518;-88
2022/08/20 13:59:46;;;;;;;;;1.00;1.00;;;;;;;;6302723;22;45337;-89
2022/08/20 14:02:12;;;;;;;;;1.00;1.00;;;;;;;;6273997;22;45377;-86
2022/08/20 14:04:38;;;;;;;;;3.00;0.33;;;;;;;;6301027;22;45317;-89
2022/08/20 14:07:10;;;;;;;;;6.00;3.00;;;;;;;;6302344;22;46411;-87
2022/08/20 14:09:37;;;;;;;;;3.33;2.00;;;;;;;;6272565;22;45235;-86
2022/08/20 14:12:02;;;;;;;;;1.67;1.67;;;;;;;;6302630;22;45315;-88
2022/08/20 14:14:27;;;;;;;;;1.33;1.33;;;;;;;;6302168;22;45279;-86
2022/08/20 14:16:52;;;;;;;;;1.00;1.00;;;;;;;;6302166;22;46657;-87
2022/08/20 14:19:18;;;;;;;;;2.00;1.00;;;;;;;;6303075;22;45520;-87
2022/08/20 14:21:43;;;;;;;;;1.33;1.33;;;;;;;;6274037;22;45325;-86
2022/08/20 14:24:08;;;;;;;;;1.00;1.00;;;;;;;;6302144;22;45302;-88
2022/08/20 14:26:33;;;;;;;;;2.33;1.00;;;;;;;;6275105;22;46279;-87
2022/08/20 14:28:58;;;;;;;;;2.00;2.00;;;;;;;;6303448;22;45363;-88
2022/08/20 14:31:23;;;;;;;;;1.00;1.00;;;;;;;;6302591;22;45381;-87
2022/08/20 14:33:50;;;;;;;;;1.67;0.33;;;;;;;;6303035;22;45273;-87
2022/08/20 14:36:15;;;;;;;;;1.00;1.00;;;;;;;;6273496;22;46034;-87
2022/08/20 14:38:43;;;;;;;;;2.00;2.00;;;;;;;;6303618;22;45357;-88
2022/08/20 14:41:09;;;;;;;;;1.00;1.00;;;;;;;;6275691;22;45519;-92
2022/08/20 14:43:34;;;;;;;;;2.00;2.00;;;;;;;;6275442;22;45365;-89
2022/08/20 14:45:59;;;;;;;;;2.00;1.00;;;;;;;;6275356;22;46571;-91
2022/08/20 14:48:26;;;;;;;;;0.67;0.67;;;;;;;;6303508;22;45288;-93
2022/08/20 14:50:54;;;;;;;;;1.00;0.00;;;;;;;;6275679;22;45354;-93
2022/08/20 14:53:20;;;;;;;;;0.00;0.00;;;;;;;;6277031;22;45534;-92
2022/08/20 14:55:45;;;;;;;;;2.00;1.00;;;;;;;;6276070;22;47298;-92
2022/08/20 14:58:12;;;;;;;;;3.67;1.00;;;;;;;;6304215;22;45383;-93
2022/08/20 15:00:37;;;;;;;;;0.67;0.67;;;;;;;;6304937;22;45352;-96
2022/08/20 15:03:03;;;;;;;;;0.00;0.00;;;;;;;;6279947;22;45465;-96
2022/08/20 15:05:28;;;;;;;;;8.33;7.33;;;;;;;;6271657;22;46186;-95
2022/08/20 15:07:55;;;;;;;;;1.67;1.00;;;;;;;;6274849;22;45437;-96
2022/08/20 15:10:23;;;;;;;;;0.00;0.00;;;;;;;;6253207;22;45353;-94
2022/08/20 15:12:48;;;;;;;;;2.00;0.67;;;;;;;;6244281;22;45472;-95
2022/08/20 15:15:14;;;;;;;;;0.00;0.00;;;;;;;;6272290;22;45566;-93
2022/08/20 15:17:42;;;;;;;;;1.00;0.00;;;;;;;;6272481;22;45291;-92
2022/08/20 15:20:10;;;;;;;;;0.67;0.67;;;;;;;;6244943;22;45266;-93
2022/08/20 15:22:35;;;;;;;;;0.00;0.00;;;;;;;;6245522;22;45420;-93
2022/08/20 15:25:01;;;;;;;;;2.00;2.00;;;;;;;;6247340;22;48057;-90
2022/08/20 15:27:26;;;;;;;;;1.00;1.00;;;;;;;;6246746;22;45376;-92
2022/08/20 15:29:52;;;;;;;;;1.00;1.00;;;;;;;;6274356;22;45250;-93
2022/08/20 15:32:18;;;;;;;;;1.67;1.33;;;;;;;;6246790;22;45368;-92
2022/08/20 15:34:43;;;;;;;;;0.00;0.00;;;;;;;;6271452;22;47065;-93
2022/08/20 15:37:20;;;;;;;;;1.00;0.00;;;;;;;;6272554;22;45180;-91
2022/08/20 15:39:46;;;;;;;;;0.00;0.00;;;;;;;;6247717;22;45230;-92
2022/08/20 15:42:12;;;;;;;;;2.67;1.67;;;;;;;;6245740;22;45520;-92
2022/08/20 15:44:38;;;;;;;;;1.33;1.33;;;;;;;;6271794;22;45321;-95
2022/08/20 15:47:15;;;;;;;;;1.00;1.00;;;;;;;;6243486;22;45360;-91
2022/08/20 15:49:41;;;;;;;;;0.00;0.00;;;;;;;;6271356;22;45390;-90
2022/08/20 15:52:07;;;;;;;;;1.33;0.00;;;;;;;;6243591;22;45469;-92
2022/08/20 15:54:32;;;;;;;;;0.00;0.00;;;;;;;;6243344;22;47029;-89
2022/08/20 15:56:58;;;;;;;;;0.00;0.00;;;;;;;;6272139;22;45259;-87
2022/08/20 15:59:29;;;;;;;;;2.33;1.00;;;;;;;;6272016;22;45309;-90
2022/08/20 16:02:13;;;;;;;;;6.67;5.00;;;;;;;;6244408;22;45353;-89
2022/08/20 16:04:38;;;;;;;;;4.00;0.00;;;;;;;;6271119;22;46419;-90
2022/08/20 16:07:12;;;;;;;;;0.25;0.25;;;;;;;;6271118;22;45504;-93
2022/08/20 16:10:01;;;;;;;;;1.00;1.00;;;;;;;;6275322;22;45357;-91
2022/08/20 16:12:34;;;;;;;;;1.33;1.00;;;;;;;;6244394;22;45471;-87
2022/08/20 16:15:01;;;;;;;;;3.67;2.00;;;;;;;;6273393;22;45496;-93
2022/08/20 16:17:31;;;;;;;;;1.00;1.00;;;;;;;;6242812;22;45471;-91
2022/08/20 16:20:00;;;;;;;;;1.00;1.00;;;;;;;;6242763;22;45482;-87
2022/08/20 16:22:28;;;;;;;;;1.67;0.00;;;;;;;;6243739;22;45481;-87
2022/08/20 16:24:53;;;;;;;;;0.67;0.67;;;;;;;;6243142;22;48118;-89
2022/08/20 16:27:41;;;;;;;;;1.00;1.00;;;;;;;;6243810;22;45316;-90
2022/08/20 16:30:11;;;;;;;;;2.67;2.00;;;;;;;;6203548;22;45456;-90
2022/08/20 16:32:40;;;;;;;;;1.00;1.00;;;;;;;;6268429;22;45400;-90
2022/08/20 16:35:16;;;;;;;;;1.00;1.00;;;;;;;;6241979;22;47960;-90
2022/08/20 16:37:49;;;;;;;;;4.00;1.33;;;;;;;;6243756;22;45787;-90
2022/08/20 16:40:22;;;;;;;;;2.00;2.00;;;;;;;;6242532;22;45217;-90
2022/08/20 16:42:50;;;;;;;;;0.00;0.00;;;;;;;;6271157;22;45333;-91
2022/08/20 16:45:24;;;;;;;;;2.00;1.00;;;;;;;;6271160;22;46449;-88
2022/08/20 16:47:50;;;;;;;;;1.00;1.00;;;;;;;;6271262;22;45251;-89
2022/08/20 16:50:18;;;;;;;;;0.33;0.00;;;;;;;;6242230;22;45666;-89
2022/08/20 16:52:45;;;;;;;;;0.00;0.00;;;;;;;;6243276;22;45423;-88